createdAt,value
2019-05-09T00:00:43.881Z,4.15
2019-05-09T00:03:13.952Z,4.00
2019-05-09T00:05:44.146Z,3.80
2019-05-09T00:08:14.127Z,4.72
2019-05-09T00:10:44.934Z,3.92
2019-05-09T00:13:14.792Z,4.10
2019-05-09T00:15:44.297Z,3.80
2019-05-09T00:18:15.385Z,4.13
2019-05-09T00:20:53.967Z,3.95
2019-05-09T00:23:24.033Z,4.37
2019-05-09T00:25:56.674Z,4.15
2019-05-09T00:28:27.896Z,4.10
2019-05-09T00:31:03.401Z,3.98
2019-05-09T00:33:34.315Z,3.95
2019-05-09T00:36:05.712Z,3.70
2019-05-09T00:38:39.508Z,3.95
2019-05-09T00:41:13.775Z,3.80
2019-05-09T00:43:44.340Z,3.47
2019-05-09T00:46:24.721Z,3.52
2019-05-09T00:49:01.634Z,3.75
2019-05-09T00:51:31.084Z,3.83
2019-05-09T00:54:00.510Z,3.50
2019-05-09T00:56:29.912Z,3.50
2019-05-09T00:58:59.394Z,3.37
2019-05-09T01:01:28.856Z,3.58
2019-05-09T01:03:58.355Z,3.65
2019-05-09T01:06:27.845Z,3.17
2019-05-09T01:08:57.319Z,3.37
2019-05-09T01:11:26.833Z,3.55
2019-05-09T01:13:56.339Z,3.77
2019-05-09T01:16:25.796Z,3.80
2019-05-09T01:18:55.435Z,4.40
2019-05-09T01:21:24.863Z,4.05
2019-05-09T01:23:55.505Z,4.12
2019-05-09T01:26:24.959Z,4.05
2019-05-09T01:28:54.447Z,3.92
2019-05-09T01:31:24.631Z,3.28
2019-05-09T01:34:03.967Z,3.60
2019-05-09T01:36:54.009Z,3.77
2019-05-09T01:39:24.212Z,3.77
2019-05-09T01:44:25.430Z,4.20
2019-05-09T01:46:57.778Z,4.37
2019-05-09T01:49:27.321Z,4.25
2019-05-09T01:51:56.796Z,4.80
2019-05-09T01:54:27.593Z,4.47
2019-05-09T01:56:57.228Z,4.35
2019-05-09T01:59:26.719Z,3.90
2019-05-09T02:01:56.274Z,5.25
2019-05-09T02:04:25.769Z,4.55
2019-05-09T02:06:55.342Z,4.10
2019-05-09T02:09:24.827Z,4.12
2019-05-09T02:11:54.680Z,4.33
2019-05-09T02:14:38.896Z,4.23
2019-05-09T02:17:10.002Z,4.28
2019-05-09T02:19:43.936Z,3.65
2019-05-09T02:22:34.524Z,4.15
2019-05-09T02:25:09.932Z,4.00
2019-05-09T02:27:39.470Z,4.28
2019-05-09T02:30:14.695Z,3.67
2019-05-09T02:32:44.719Z,4.17
2019-05-09T02:35:14.007Z,3.95
2019-05-09T02:37:43.479Z,3.98
2019-05-09T02:40:13.189Z,3.80
2019-05-09T02:42:42.730Z,3.77
2019-05-09T02:45:13.379Z,3.10
2019-05-09T02:47:42.760Z,3.87
2019-05-09T02:50:12.891Z,4.10
2019-05-09T02:52:42.385Z,3.22
2019-05-09T02:55:11.937Z,3.65
2019-05-09T02:57:41.499Z,3.85
2019-05-09T03:00:30.391Z,3.35
2019-05-09T03:03:04.280Z,3.27
2019-05-09T03:05:33.778Z,3.42
2019-05-09T03:08:05.188Z,3.55
2019-05-09T03:10:34.756Z,3.62
2019-05-09T03:13:04.335Z,4.03
2019-05-09T03:15:34.939Z,3.12
2019-05-09T03:18:04.562Z,3.10
2019-05-09T03:20:39.388Z,3.20
2019-05-09T03:23:11.739Z,3.20
2019-05-09T03:25:41.306Z,2.83
2019-05-09T03:28:18.145Z,3.40
2019-05-09T03:30:50.105Z,3.05
2019-05-09T03:33:20.308Z,3.42
2019-05-09T03:35:50.032Z,3.12
2019-05-09T03:38:19.428Z,3.12
2019-05-09T03:40:49.012Z,2.67
2019-05-09T03:43:18.514Z,2.42
2019-05-09T03:45:52.526Z,2.65
2019-05-09T03:48:41.961Z,3.10
2019-05-09T03:51:11.425Z,2.98
2019-05-09T03:53:40.914Z,3.63
2019-05-09T03:56:12.059Z,3.12
2019-05-09T03:58:41.564Z,3.33
2019-05-09T04:01:11.098Z,2.72
2019-05-09T04:03:40.531Z,2.87
2019-05-09T04:06:10.041Z,3.15
2019-05-09T04:08:39.567Z,3.12
2019-05-09T04:11:09.045Z,3.10
2019-05-09T04:13:42.841Z,2.85
2019-05-09T04:16:12.399Z,3.35
2019-05-09T04:18:41.869Z,2.97
2019-05-09T04:21:11.425Z,3.00
2019-05-09T04:23:40.891Z,3.15
2019-05-09T04:26:14.759Z,3.17
2019-05-09T04:28:44.220Z,3.50
2019-05-09T04:31:13.725Z,4.20
2019-05-09T04:33:43.173Z,3.63
2019-05-09T04:36:12.689Z,3.83
2019-05-09T04:38:42.163Z,3.83
2019-05-09T04:41:18.394Z,4.25
2019-05-09T04:43:44.183Z,4.33
2019-05-09T04:48:43.913Z,4.40
2019-05-09T04:51:13.479Z,5.22
2019-05-09T04:53:42.939Z,4.90
2019-05-09T04:56:17.645Z,5.03
2019-05-09T04:58:48.193Z,5.28
2019-05-09T05:01:19.823Z,4.83
2019-05-09T05:03:51.242Z,5.15
2019-05-09T05:06:21.022Z,4.72
2019-05-09T05:08:50.464Z,6.40
2019-05-09T05:11:21.535Z,5.30
2019-05-09T05:13:50.985Z,4.90
2019-05-09T05:16:20.457Z,5.58
2019-05-09T05:18:50.044Z,4.75
2019-05-09T05:21:20.473Z,4.75
2019-05-09T05:23:54.818Z,4.35
2019-05-09T05:26:27.550Z,5.46
2019-05-09T05:28:58.576Z,5.78
2019-05-09T05:31:28.660Z,5.17
2019-05-09T05:34:00.120Z,5.17
2019-05-09T05:36:29.620Z,5.47
2019-05-09T05:38:59.130Z,5.47
2019-05-09T05:41:28.740Z,5.03
2019-05-09T05:43:58.247Z,4.40
2019-05-09T05:46:50.865Z,4.90
2019-05-09T05:49:20.269Z,5.10
2019-05-09T05:52:05.203Z,5.40
2019-05-09T05:54:34.536Z,4.62
2019-05-09T05:57:04.109Z,5.03
2019-05-09T05:59:36.931Z,5.12
2019-05-09T06:02:04.912Z,4.08
2019-05-09T06:04:34.381Z,4.80
2019-05-09T06:07:03.985Z,4.42
2019-05-09T06:09:33.869Z,4.12
2019-05-09T06:12:03.500Z,4.20
2019-05-09T06:14:32.968Z,3.95
2019-05-09T06:17:02.477Z,4.35
2019-05-09T06:19:31.951Z,4.53
2019-05-09T06:22:01.444Z,4.78
2019-05-09T06:24:30.903Z,4.70
2019-05-09T06:27:00.399Z,4.25
2019-05-09T06:29:29.934Z,3.98
2019-05-09T06:31:59.439Z,3.55
2019-05-09T06:37:08.991Z,4.00
2019-05-09T06:39:38.522Z,4.30
2019-05-09T06:42:09.227Z,3.53
2019-05-09T06:47:30.123Z,4.08
2019-05-09T06:50:01.325Z,3.22
2019-05-09T06:52:30.822Z,3.65
2019-05-09T06:55:00.339Z,3.47
2019-05-09T06:57:29.851Z,3.25
2019-05-09T06:59:59.393Z,3.77
2019-05-09T07:02:38.715Z,3.15
2019-05-09T07:05:24.428Z,3.25
2019-05-09T07:07:57.499Z,3.62
2019-05-09T07:10:28.397Z,3.33
2019-05-09T07:12:58.487Z,4.00
2019-05-09T07:15:28.373Z,3.72
2019-05-09T07:17:59.259Z,3.52
2019-05-09T07:22:59.027Z,3.27
2019-05-09T07:25:39.133Z,3.60
2019-05-09T07:28:08.570Z,3.27
2019-05-09T07:30:42.571Z,3.77
2019-05-09T07:33:22.675Z,3.33
2019-05-09T07:35:52.211Z,4.25
2019-05-09T07:38:31.928Z,3.20
2019-05-09T07:41:01.709Z,3.35
2019-05-09T07:43:31.284Z,3.77
2019-05-09T07:46:18.742Z,3.25
2019-05-09T07:48:52.963Z,3.67
2019-05-09T07:51:22.543Z,3.35
2019-05-09T07:53:52.086Z,3.85
2019-05-09T07:56:22.102Z,3.45
2019-05-09T07:58:53.152Z,3.92
2019-05-09T08:01:22.693Z,3.47
2019-05-09T08:03:52.268Z,3.30
2019-05-09T08:06:21.898Z,3.15
2019-05-09T08:08:51.427Z,3.40
2019-05-09T08:11:20.983Z,2.85
2019-05-09T08:13:50.473Z,2.80
2019-05-09T08:16:20.008Z,3.02
2019-05-09T08:18:49.510Z,3.40
2019-05-09T08:21:18.970Z,3.25
2019-05-09T08:23:48.714Z,2.90
2019-05-09T08:26:18.874Z,3.30
2019-05-09T08:28:51.526Z,3.52
2019-05-09T08:31:21.044Z,2.80
2019-05-09T08:33:50.520Z,3.00
2019-05-09T08:36:20.389Z,2.60
2019-05-09T08:38:49.941Z,3.00
2019-05-09T08:41:19.614Z,2.58
2019-05-09T08:43:49.136Z,2.75
2019-05-09T08:46:18.731Z,2.70
2019-05-09T08:48:48.676Z,2.57
2019-05-09T08:51:21.056Z,3.02
2019-05-09T08:53:50.540Z,2.75
2019-05-09T08:56:20.103Z,2.62
2019-05-09T08:58:49.565Z,2.60
2019-05-09T09:01:30.266Z,3.00
2019-05-09T09:03:51.083Z,2.90
2019-05-09T09:06:20.585Z,2.25
2019-05-09T09:08:50.073Z,2.45
2019-05-09T09:11:19.606Z,2.40
2019-05-09T09:13:49.284Z,2.55
2019-05-09T09:16:22.586Z,2.67
2019-05-09T09:18:54.397Z,2.67
2019-05-09T09:21:24.975Z,2.80
2019-05-09T09:23:54.541Z,2.65
2019-05-09T09:26:24.171Z,2.27
2019-05-09T09:28:57.754Z,2.92
2019-05-09T09:31:30.131Z,2.95
2019-05-09T09:33:59.889Z,2.22
2019-05-09T09:36:29.277Z,2.33
2019-05-09T09:38:58.808Z,3.22
2019-05-09T09:43:58.508Z,3.35
2019-05-09T09:46:28.708Z,2.50
2019-05-09T09:48:58.957Z,2.45
2019-05-09T09:51:28.448Z,3.17
2019-05-09T09:53:58.404Z,2.52
2019-05-09T09:56:28.439Z,2.70
2019-05-09T09:58:59.667Z,3.08
2019-05-09T10:01:31.059Z,3.08
2019-05-09T10:04:23.998Z,3.20
2019-05-09T10:06:52.853Z,2.85
2019-05-09T10:09:19.899Z,2.50
2019-05-09T10:11:49.424Z,2.37
2019-05-09T10:14:20.573Z,2.50
2019-05-09T10:17:00.725Z,2.62
2019-05-09T10:19:38.453Z,2.27
2019-05-09T10:22:22.358Z,2.10
2019-05-09T10:24:47.875Z,2.30
2019-05-09T10:27:18.517Z,2.42
2019-05-09T10:29:48.158Z,2.37
2019-05-09T10:32:18.351Z,2.10
2019-05-09T10:34:48.809Z,2.52
2019-05-09T10:37:19.667Z,2.27
2019-05-09T10:39:49.335Z,2.10
2019-05-09T10:42:23.596Z,2.40
2019-05-09T10:44:58.259Z,2.10
2019-05-09T10:47:32.497Z,2.50
2019-05-09T10:50:03.786Z,2.42
2019-05-09T10:52:33.275Z,2.52
2019-05-09T10:55:02.764Z,2.40
2019-05-09T10:57:32.700Z,1.90
2019-05-09T11:00:02.650Z,2.52
2019-05-09T11:02:32.592Z,2.08
2019-05-09T11:05:02.122Z,2.12
2019-05-09T11:07:31.711Z,1.97
2019-05-09T11:10:01.181Z,2.25
2019-05-09T11:12:30.808Z,1.90
2019-05-09T11:15:00.286Z,1.70
2019-05-09T11:17:29.862Z,1.98
2019-05-09T11:19:59.354Z,1.80
2019-05-09T11:22:29.435Z,2.75
2019-05-09T11:24:58.989Z,2.75
2019-05-09T11:27:29.282Z,2.60
2019-05-09T11:29:58.890Z,2.25
2019-05-09T11:32:28.779Z,2.10
2019-05-09T11:34:58.330Z,2.70
2019-05-09T11:37:29.234Z,2.62
2019-05-09T11:39:58.705Z,2.00
2019-05-09T11:42:28.668Z,1.70
2019-05-09T11:44:59.760Z,2.33
2019-05-09T11:47:38.213Z,2.22
2019-05-09T11:50:00.346Z,2.15
2019-05-09T11:52:29.829Z,2.30
2019-05-09T11:54:59.308Z,2.02
2019-05-09T11:57:31.538Z,2.70
2019-05-09T12:00:00.107Z,1.77
2019-05-09T12:02:29.707Z,2.10
2019-05-09T12:04:59.157Z,1.98
2019-05-09T12:07:28.943Z,1.70
2019-05-09T12:09:58.922Z,2.07
2019-05-09T12:12:30.353Z,1.70
2019-05-09T12:14:59.858Z,1.87
2019-05-09T12:17:40.770Z,1.73
2019-05-09T12:20:09.558Z,1.77
2019-05-09T12:22:31.736Z,1.50
2019-05-09T12:25:01.342Z,1.92
2019-05-09T12:27:30.886Z,1.72
2019-05-09T12:30:01.473Z,1.67
2019-05-09T12:32:31.117Z,2.45
2019-05-09T12:35:00.956Z,2.40
2019-05-09T12:37:30.477Z,2.40
2019-05-09T12:40:00.881Z,2.50
2019-05-09T12:42:30.436Z,2.12
2019-05-09T12:44:59.935Z,2.25
2019-05-09T12:47:29.608Z,2.20
2019-05-09T12:50:02.684Z,2.40
2019-05-09T12:52:31.479Z,2.72
2019-05-09T12:55:01.057Z,2.40
2019-05-09T12:57:30.629Z,2.10
2019-05-09T13:00:01.078Z,2.80
2019-05-09T13:02:30.747Z,2.50
2019-05-09T13:05:00.207Z,2.70
2019-05-09T13:07:31.295Z,3.08
2019-05-09T13:10:00.749Z,2.50
2019-05-09T13:12:31.335Z,2.85
2019-05-09T13:15:04.028Z,2.50
2019-05-09T13:17:41.439Z,2.40
2019-05-09T13:20:12.147Z,2.52
2019-05-09T13:22:41.760Z,2.30
2019-05-09T13:25:11.362Z,1.80
2019-05-09T13:27:40.879Z,2.27
2019-05-09T13:30:10.773Z,1.65
2019-05-09T13:32:40.262Z,1.83
2019-05-09T13:35:10.187Z,1.87
2019-05-09T13:37:40.189Z,2.27
2019-05-09T13:40:11.378Z,1.87
2019-05-09T13:42:42.388Z,1.50
2019-05-09T13:45:11.942Z,1.52
2019-05-09T13:47:41.444Z,1.90
2019-05-09T13:50:11.242Z,1.70
2019-05-09T13:52:40.846Z,2.03
2019-05-09T13:55:10.470Z,1.65
2019-05-09T13:57:40.120Z,1.60
2019-05-09T14:00:11.792Z,1.90
2019-05-09T14:02:44.905Z,2.40
2019-05-09T14:05:12.459Z,2.42
2019-05-09T14:07:42.026Z,2.37
2019-05-09T14:10:11.722Z,2.02
2019-05-09T14:12:41.316Z,2.70
2019-05-09T14:15:10.970Z,2.60
2019-05-09T14:17:49.262Z,2.70
2019-05-09T14:20:11.819Z,2.50
2019-05-09T14:22:42.239Z,2.40
2019-05-09T14:25:12.057Z,1.65
2019-05-09T14:27:41.556Z,1.50
2019-05-09T14:30:11.375Z,1.67
2019-05-09T14:32:40.939Z,1.60
2019-05-09T14:35:10.570Z,1.50
2019-05-09T14:37:44.754Z,1.42
2019-05-09T14:40:14.324Z,1.37
2019-05-09T14:42:43.916Z,1.73
2019-05-09T14:45:13.735Z,1.57
2019-05-09T14:47:43.404Z,1.70
2019-05-09T14:50:13.042Z,1.77
2019-05-09T14:52:43.743Z,2.10
2019-05-09T14:55:13.393Z,2.00
2019-05-09T14:57:43.069Z,2.20
2019-05-09T15:00:14.444Z,3.00
2019-05-09T15:02:44.079Z,2.37
2019-05-09T15:05:13.768Z,2.50
2019-05-09T15:07:44.450Z,2.77
2019-05-09T15:12:42.964Z,2.67
2019-05-09T15:15:12.767Z,2.80
2019-05-09T15:17:42.304Z,3.37
2019-05-09T15:20:14.379Z,2.60
2019-05-09T15:22:43.835Z,3.00
2019-05-09T15:25:13.508Z,2.62
2019-05-09T15:27:44.257Z,3.03
2019-05-09T15:32:42.741Z,3.20
2019-05-09T15:35:12.405Z,2.65
2019-05-09T15:37:42.145Z,2.77
2019-05-09T15:40:12.069Z,2.95
2019-05-09T15:42:41.617Z,2.50
2019-05-09T15:45:11.523Z,2.72
2019-05-09T15:47:41.081Z,2.60
2019-05-09T15:50:20.067Z,2.77
2019-05-09T15:52:44.937Z,2.70
2019-05-09T15:55:14.577Z,2.85
2019-05-09T15:57:44.211Z,2.87
2019-05-09T16:00:15.198Z,2.90
2019-05-09T16:02:44.827Z,2.70
2019-05-09T16:05:14.592Z,2.62
2019-05-09T16:07:44.141Z,2.87
2019-05-09T16:10:13.940Z,2.62
2019-05-09T16:12:43.509Z,3.20
2019-05-09T16:15:13.659Z,3.50
2019-05-09T16:17:43.291Z,2.85
2019-05-09T16:20:22.961Z,3.55
2019-05-09T16:22:48.253Z,3.08
2019-05-09T16:27:48.786Z,3.62
2019-05-09T16:30:18.557Z,3.55
2019-05-09T16:32:48.204Z,3.75
2019-05-09T16:35:18.319Z,3.42
2019-05-09T16:38:01.797Z,3.42
2019-05-09T16:40:21.131Z,3.72
2019-05-09T16:42:51.321Z,4.03
2019-05-09T16:45:21.001Z,5.28
2019-05-09T16:47:50.715Z,5.73
2019-05-09T16:50:20.968Z,5.40
2019-05-09T16:52:50.659Z,6.78
2019-05-09T16:55:21.780Z,6.30
2019-05-09T16:57:51.288Z,5.70
2019-05-09T17:00:33.187Z,6.70
2019-05-09T17:03:04.194Z,6.45
2019-05-09T17:05:33.880Z,5.55
2019-05-09T17:10:33.456Z,6.33
2019-05-09T17:13:04.719Z,5.80
2019-05-09T17:15:34.278Z,5.10
2019-05-09T17:18:03.957Z,4.97
2019-05-09T17:20:37.833Z,4.78
2019-05-09T17:23:14.481Z,5.00
2019-05-09T17:25:39.990Z,6.90
2019-05-09T17:28:09.634Z,8.13
2019-05-09T17:30:39.487Z,8.23
2019-05-09T17:33:15.557Z,9.10
2019-05-09T17:35:48.296Z,8.53
2019-05-09T17:38:18.165Z,5.00
2019-05-09T17:40:48.502Z,5.42
2019-05-09T17:43:18.524Z,5.25
2019-05-09T17:45:50.161Z,5.60
2019-05-09T17:48:19.758Z,5.90
2019-05-09T17:50:49.422Z,7.22
2019-05-09T17:53:18.940Z,6.97
2019-05-09T17:55:48.435Z,6.42
2019-05-09T17:58:27.175Z,7.40
2019-05-09T18:00:49.282Z,7.83
2019-05-09T18:03:18.868Z,7.20
2019-05-09T18:05:49.607Z,6.60
2019-05-09T18:08:19.277Z,5.45
2019-05-09T18:10:49.724Z,4.03
2019-05-09T18:13:23.851Z,3.60
2019-05-09T18:15:50.452Z,3.05
2019-05-09T18:18:20.115Z,3.10
2019-05-09T18:20:49.734Z,3.30
2019-05-09T18:23:19.240Z,3.17
2019-05-09T18:25:49.560Z,2.50
2019-05-09T18:28:20.472Z,3.65
2019-05-09T18:30:50.029Z,2.90
2019-05-09T18:33:21.257Z,3.00
2019-05-09T18:35:50.757Z,2.77
2019-05-09T18:38:23.405Z,2.17
2019-05-09T18:40:52.981Z,2.95
2019-05-09T18:43:22.614Z,3.27
2019-05-09T18:45:52.115Z,2.77
2019-05-09T18:48:24.265Z,2.87
2019-05-09T18:50:53.877Z,3.10
2019-05-09T18:53:23.434Z,2.58
2019-05-09T18:55:52.990Z,3.22
2019-05-09T18:58:22.703Z,3.00
2019-05-09T19:00:52.738Z,2.95
2019-05-09T19:03:22.540Z,2.80
2019-05-09T19:05:52.198Z,2.92
2019-05-09T19:08:21.692Z,3.80
2019-05-09T19:10:52.320Z,4.08
2019-05-09T19:13:22.160Z,3.85
2019-05-09T19:16:09.929Z,4.22
2019-05-09T19:18:41.062Z,4.05
2019-05-09T19:21:13.129Z,4.90
2019-05-09T19:23:42.773Z,4.78
2019-05-09T19:26:13.953Z,5.28
2019-05-09T19:28:43.688Z,6.12
2019-05-09T19:31:13.196Z,7.20
2019-05-09T19:33:42.860Z,7.10
2019-05-09T19:36:12.435Z,6.62
2019-05-09T19:38:42.010Z,8.60
2019-05-09T19:41:11.571Z,7.20
2019-05-09T19:43:41.046Z,7.10
2019-05-09T19:46:10.576Z,8.85
2019-05-09T19:48:40.176Z,8.20
2019-05-09T19:51:09.645Z,7.90
2019-05-09T19:53:40.808Z,6.75
2019-05-09T19:56:10.385Z,7.78
2019-05-09T19:58:39.948Z,7.50
2019-05-09T20:01:09.526Z,6.87
2019-05-09T20:03:39.236Z,7.50
2019-05-09T20:06:08.956Z,7.00
2019-05-09T20:08:38.554Z,7.37
2019-05-09T20:11:12.773Z,8.88
2019-05-09T20:13:59.392Z,9.85
2019-05-09T20:16:33.336Z,10.63
2019-05-09T20:19:05.675Z,10.82
2019-05-09T20:21:35.204Z,11.60
2019-05-09T20:24:09.015Z,10.98
2019-05-09T20:26:37.115Z,12.27
2019-05-09T20:29:06.913Z,10.93
2019-05-09T20:31:37.912Z,10.15
2019-05-09T20:34:09.007Z,9.60
2019-05-09T20:36:38.712Z,8.53
2019-05-09T20:39:08.628Z,8.70
2019-05-09T20:41:38.448Z,9.73
2019-05-09T20:44:08.934Z,9.50
2019-05-09T20:46:38.717Z,9.53
2019-05-09T20:49:08.494Z,7.70
2019-05-09T20:51:38.255Z,7.90
2019-05-09T20:54:20.016Z,9.00
2019-05-09T20:56:39.718Z,8.30
2019-05-09T20:59:09.378Z,9.28
2019-05-09T21:01:41.962Z,9.97
2019-05-09T21:04:11.671Z,9.30
2019-05-09T21:06:41.425Z,8.87
2019-05-09T21:09:11.297Z,8.15
2019-05-09T21:11:42.645Z,8.20
2019-05-09T21:14:14.050Z,7.97
2019-05-09T21:16:44.311Z,8.50
2019-05-09T21:19:14.263Z,8.37
2019-05-09T21:21:44.275Z,8.33
2019-05-09T21:24:14.097Z,9.78
2019-05-09T21:26:43.865Z,8.83
2019-05-09T21:29:13.632Z,9.83
2019-05-09T21:31:43.387Z,10.07
2019-05-09T21:34:13.130Z,9.75
2019-05-09T21:36:42.789Z,12.40
2019-05-09T21:39:12.368Z,9.73
2019-05-09T21:41:41.964Z,10.53
2019-05-09T21:44:11.459Z,9.95
2019-05-09T21:46:41.071Z,10.60
2019-05-09T21:49:10.549Z,10.58
2019-05-09T21:51:40.099Z,12.17
2019-05-09T21:54:09.810Z,12.85
2019-05-09T21:56:39.388Z,14.13
2019-05-09T21:59:11.058Z,13.85
2019-05-09T22:01:41.170Z,17.07
2019-05-09T22:04:10.740Z,16.62
2019-05-09T22:06:40.321Z,18.87
2019-05-09T22:09:11.239Z,20.00
2019-05-09T22:11:40.952Z,18.70
2019-05-09T22:14:10.516Z,18.42
2019-05-09T22:16:40.040Z,17.67
2019-05-09T22:19:09.717Z,16.82
2019-05-09T22:21:39.268Z,17.33
2019-05-09T22:24:08.860Z,16.40
2019-05-09T22:26:38.380Z,15.05
2019-05-09T22:29:07.843Z,13.48
2019-05-09T22:31:37.353Z,13.57
2019-05-09T22:34:06.837Z,11.50
2019-05-09T22:36:37.869Z,12.75
2019-05-09T22:39:08.282Z,10.70
2019-05-09T22:41:37.751Z,10.43
2019-05-09T22:44:07.245Z,10.15
2019-05-09T22:46:36.794Z,10.07
2019-05-09T22:49:06.271Z,9.00
2019-05-09T22:51:35.768Z,7.80
2019-05-09T22:54:12.684Z,7.50
2019-05-09T22:56:36.433Z,8.25
2019-05-09T22:59:07.540Z,8.10
2019-05-09T23:01:38.031Z,8.65
2019-05-09T23:04:10.305Z,8.20
2019-05-09T23:06:39.769Z,9.03
2019-05-09T23:09:10.918Z,10.13
2019-05-09T23:11:40.472Z,11.18
2019-05-09T23:14:09.948Z,11.20
2019-05-09T23:16:41.200Z,10.88
2019-05-09T23:19:10.852Z,11.70
2019-05-09T23:21:40.321Z,11.50
2019-05-09T23:24:26.526Z,10.80
2019-05-09T23:26:42.692Z,10.77
2019-05-09T23:29:12.114Z,11.25
2019-05-09T23:31:43.218Z,10.43
2019-05-09T23:34:12.705Z,10.53
2019-05-09T23:36:42.188Z,11.33
2019-05-09T23:39:15.798Z,9.98
2019-05-09T23:41:47.078Z,10.48
2019-05-09T23:44:16.575Z,8.85
2019-05-09T23:46:46.067Z,10.28
2019-05-09T23:49:15.511Z,9.65
2019-05-09T23:51:45.353Z,9.75
2019-05-09T23:54:45.046Z,8.85
2019-05-09T23:57:25.059Z,8.30
